sensor_id;sensor_type;location;lat;lon;timestamp;P1;durP1;ratioP1;P2;durP2;ratioP2
26484;SDS011;18083;50.560;7.262;2023-03-07T00:01:41;19.40;;;10.17;;
26484;SDS011;18083;50.560;7.262;2023-03-07T00:04:09;20.40;;;10.37;;
26484;SDS011;18083;50.560;7.262;2023-03-07T00:06:36;18.43;;;10.73;;
26484;SDS011;18083;50.560;7.262;2023-03-07T00:09:03;25.07;;;10.90;;
26484;SDS011;18083;50.560;7.262;2023-03-07T00:11:31;19.07;;;10.73;;
26484;SDS011;18083;50.560;7.262;2023-03-07T00:13:58;19.27;;;10.63;;
26484;SDS011;18083;50.560;7.262;2023-03-07T00:16:25;20.63;;;10.80;;
26484;SDS011;18083;50.560;7.262;2023-03-07T00:18:54;15.90;;;9.03;;
26484;SDS011;18083;50.560;7.262;2023-03-07T00:21:21;15.27;;;10.37;;
26484;SDS011;18083;50.560;7.262;2023-03-07T00:23:50;14.60;;;8.40;;
26484;SDS011;18083;50.560;7.262;2023-03-07T00:26:19;14.60;;;9.47;;
26484;SDS011;18083;50.560;7.262;2023-03-07T00:28:47;17.00;;;8.70;;
26484;SDS011;18083;50.560;7.262;2023-03-07T00:31:15;14.73;;;8.50;;
26484;SDS011;18083;50.560;7.262;2023-03-07T00:33:43;17.50;;;8.10;;
26484;SDS011;18083;50.560;7.262;2023-03-07T00:36:16;16.90;;;8.83;;
26484;SDS011;18083;50.560;7.262;2023-03-07T00:38:39;14.00;;;8.40;;
26484;SDS011;18083;50.560;7.262;2023-03-07T00:41:08;13.10;;;7.97;;
26484;SDS011;18083;50.560;7.262;2023-03-07T00:43:36;16.03;;;8.10;;
26484;SDS011;18083;50.560;7.262;2023-03-07T00:46:04;15.87;;;8.00;;
26484;SDS011;18083;50.560;7.262;2023-03-07T00:48:32;12.53;;;7.90;;
26484;SDS011;18083;50.560;7.262;2023-03-07T00:51:00;15.27;;;8.13;;
26484;SDS011;18083;50.560;7.262;2023-03-07T00:53:27;13.33;;;6.70;;
26484;SDS011;18083;50.560;7.262;2023-03-07T00:56:00;10.83;;;6.70;;
26484;SDS011;18083;50.560;7.262;2023-03-07T00:58:24;8.30;;;5.63;;
26484;SDS011;18083;50.560;7.262;2023-03-07T01:00:52;10.67;;;6.67;;
26484;SDS011;18083;50.560;7.262;2023-03-07T01:03:19;11.40;;;6.33;;
26484;SDS011;18083;50.560;7.262;2023-03-07T01:05:47;8.23;;;5.27;;
26484;SDS011;18083;50.560;7.262;2023-03-07T01:08:14;8.97;;;6.27;;
26484;SDS011;18083;50.560;7.262;2023-03-07T01:10:42;12.50;;;6.37;;
26484;SDS011;18083;50.560;7.262;2023-03-07T01:13:10;8.37;;;5.63;;
26484;SDS011;18083;50.560;7.262;2023-03-07T01:15:38;10.13;;;5.93;;
26484;SDS011;18083;50.560;7.262;2023-03-07T01:18:06;9.90;;;5.97;;
26484;SDS011;18083;50.560;7.262;2023-03-07T01:20:34;10.67;;;5.60;;
26484;SDS011;18083;50.560;7.262;2023-03-07T01:23:02;9.30;;;5.30;;
26484;SDS011;18083;50.560;7.262;2023-03-07T01:25:29;8.20;;;4.90;;
26484;SDS011;18083;50.560;7.262;2023-03-07T01:27:57;7.33;;;4.67;;
26484;SDS011;18083;50.560;7.262;2023-03-07T01:30:24;8.43;;;4.77;;
26484;SDS011;18083;50.560;7.262;2023-03-07T01:32:55;9.43;;;5.50;;
26484;SDS011;18083;50.560;7.262;2023-03-07T01:35:21;7.80;;;4.67;;
26484;SDS011;18083;50.560;7.262;2023-03-07T01:37:51;5.70;;;3.63;;
26484;SDS011;18083;50.560;7.262;2023-03-07T01:40:20;6.87;;;4.50;;
26484;SDS011;18083;50.560;7.262;2023-03-07T01:42:47;6.00;;;4.50;;
26484;SDS011;18083;50.560;7.262;2023-03-07T01:47:43;6.57;;;3.77;;
26484;SDS011;18083;50.560;7.262;2023-03-07T01:50:12;6.07;;;4.17;;
26484;SDS011;18083;50.560;7.262;2023-03-07T01:52:46;6.23;;;4.10;;
26484;SDS011;18083;50.560;7.262;2023-03-07T01:55:17;6.13;;;3.30;;
26484;SDS011;18083;50.560;7.262;2023-03-07T01:57:46;7.03;;;4.80;;
26484;SDS011;18083;50.560;7.262;2023-03-07T02:00:15;6.57;;;4.17;;
26484;SDS011;18083;50.560;7.262;2023-03-07T02:02:48;6.17;;;4.57;;
26484;SDS011;18083;50.560;7.262;2023-03-07T02:05:23;6.63;;;3.93;;
26484;SDS011;18083;50.560;7.262;2023-03-07T02:07:51;7.23;;;3.93;;
26484;SDS011;18083;50.560;7.262;2023-03-07T02:10:19;5.57;;;3.70;;
26484;SDS011;18083;50.560;7.262;2023-03-07T02:12:47;6.13;;;3.93;;
26484;SDS011;18083;50.560;7.262;2023-03-07T02:15:15;5.47;;;3.90;;
26484;SDS011;18083;50.560;7.262;2023-03-07T02:17:42;6.47;;;4.27;;
26484;SDS011;18083;50.560;7.262;2023-03-07T02:22:43;7.43;;;4.27;;
26484;SDS011;18083;50.560;7.262;2023-03-07T02:25:20;5.73;;;3.43;;
26484;SDS011;18083;50.560;7.262;2023-03-07T02:27:42;5.63;;;3.83;;
26484;SDS011;18083;50.560;7.262;2023-03-07T02:30:11;5.10;;;3.73;;
26484;SDS011;18083;50.560;7.262;2023-03-07T02:32:38;6.43;;;4.73;;
26484;SDS011;18083;50.560;7.262;2023-03-07T02:35:15;5.77;;;3.77;;
26484;SDS011;18083;50.560;7.262;2023-03-07T02:37:44;6.00;;;4.17;;
26484;SDS011;18083;50.560;7.262;2023-03-07T02:40:13;5.27;;;3.67;;
26484;SDS011;18083;50.560;7.262;2023-03-07T02:42:41;6.17;;;3.70;;
26484;SDS011;18083;50.560;7.262;2023-03-07T02:45:10;6.57;;;3.97;;
26484;SDS011;18083;50.560;7.262;2023-03-07T02:47:39;5.93;;;4.43;;
26484;SDS011;18083;50.560;7.262;2023-03-07T02:50:07;6.30;;;4.23;;
26484;SDS011;18083;50.560;7.262;2023-03-07T02:52:34;7.03;;;4.53;;
26484;SDS011;18083;50.560;7.262;2023-03-07T02:55:02;8.50;;;5.17;;
26484;SDS011;18083;50.560;7.262;2023-03-07T02:57:29;7.73;;;4.50;;
26484;SDS011;18083;50.560;7.262;2023-03-07T02:59:57;7.03;;;4.90;;
26484;SDS011;18083;50.560;7.262;2023-03-07T03:02:25;7.87;;;5.23;;
26484;SDS011;18083;50.560;7.262;2023-03-07T03:04:52;9.10;;;5.30;;
26484;SDS011;18083;50.560;7.262;2023-03-07T03:07:19;10.83;;;6.03;;
26484;SDS011;18083;50.560;7.262;2023-03-07T03:09:47;7.43;;;5.07;;
26484;SDS011;18083;50.560;7.262;2023-03-07T03:12:14;6.97;;;5.70;;
26484;SDS011;18083;50.560;7.262;2023-03-07T03:14:41;8.23;;;5.30;;
26484;SDS011;18083;50.560;7.262;2023-03-07T03:17:09;8.63;;;5.07;;
26484;SDS011;18083;50.560;7.262;2023-03-07T03:19:36;9.63;;;4.50;;
26484;SDS011;18083;50.560;7.262;2023-03-07T03:22:03;6.53;;;4.70;;
26484;SDS011;18083;50.560;7.262;2023-03-07T03:24:31;8.80;;;5.77;;
26484;SDS011;18083;50.560;7.262;2023-03-07T03:26:58;9.43;;;5.17;;
26484;SDS011;18083;50.560;7.262;2023-03-07T03:29:25;8.07;;;5.30;;
26484;SDS011;18083;50.560;7.262;2023-03-07T03:31:53;8.07;;;5.57;;
26484;SDS011;18083;50.560;7.262;2023-03-07T03:34:20;9.80;;;6.00;;
26484;SDS011;18083;50.560;7.262;2023-03-07T03:36:48;11.07;;;6.13;;
26484;SDS011;18083;50.560;7.262;2023-03-07T03:39:16;7.80;;;6.03;;
26484;SDS011;18083;50.560;7.262;2023-03-07T03:41:43;8.80;;;5.50;;
26484;SDS011;18083;50.560;7.262;2023-03-07T03:44:10;12.00;;;6.67;;
26484;SDS011;18083;50.560;7.262;2023-03-07T03:46:38;8.80;;;6.00;;
26484;SDS011;18083;50.560;7.262;2023-03-07T03:49:05;9.03;;;5.80;;
26484;SDS011;18083;50.560;7.262;2023-03-07T03:51:32;11.27;;;6.30;;
26484;SDS011;18083;50.560;7.262;2023-03-07T03:54:00;11.70;;;6.97;;
26484;SDS011;18083;50.560;7.262;2023-03-07T03:56:27;10.80;;;6.40;;
26484;SDS011;18083;50.560;7.262;2023-03-07T03:58:55;9.13;;;6.77;;
26484;SDS011;18083;50.560;7.262;2023-03-07T04:01:24;7.97;;;5.57;;
26484;SDS011;18083;50.560;7.262;2023-03-07T04:03:52;10.50;;;7.00;;
26484;SDS011;18083;50.560;7.262;2023-03-07T04:06:25;11.93;;;7.27;;
26484;SDS011;18083;50.560;7.262;2023-03-07T04:08:49;12.07;;;7.37;;
26484;SDS011;18083;50.560;7.262;2023-03-07T04:11:16;9.73;;;6.53;;
26484;SDS011;18083;50.560;7.262;2023-03-07T04:13:44;13.93;;;7.63;;
26484;SDS011;18083;50.560;7.262;2023-03-07T04:16:11;11.33;;;7.17;;
26484;SDS011;18083;50.560;7.262;2023-03-07T04:18:38;12.57;;;8.13;;
26484;SDS011;18083;50.560;7.262;2023-03-07T04:21:06;10.80;;;7.97;;
26484;SDS011;18083;50.560;7.262;2023-03-07T04:23:33;12.17;;;7.40;;
26484;SDS011;18083;50.560;7.262;2023-03-07T04:26:01;13.37;;;7.47;;
26484;SDS011;18083;50.560;7.262;2023-03-07T04:28:33;15.37;;;7.20;;
26484;SDS011;18083;50.560;7.262;2023-03-07T04:31:16;12.10;;;8.10;;
26484;SDS011;18083;50.560;7.262;2023-03-07T04:33:43;12.17;;;7.37;;
26484;SDS011;18083;50.560;7.262;2023-03-07T04:36:11;14.77;;;8.30;;
26484;SDS011;18083;50.560;7.262;2023-03-07T04:38:38;15.57;;;8.90;;
26484;SDS011;18083;50.560;7.262;2023-03-07T04:41:07;15.27;;;9.53;;
26484;SDS011;18083;50.560;7.262;2023-03-07T04:43:36;15.07;;;8.63;;
26484;SDS011;18083;50.560;7.262;2023-03-07T04:46:03;15.10;;;9.07;;
26484;SDS011;18083;50.560;7.262;2023-03-07T04:48:31;12.67;;;8.90;;
26484;SDS011;18083;50.560;7.262;2023-03-07T04:50:58;15.27;;;9.87;;
26484;SDS011;18083;50.560;7.262;2023-03-07T04:53:25;16.47;;;10.70;;
26484;SDS011;18083;50.560;7.262;2023-03-07T04:56:01;14.20;;;9.63;;
26484;SDS011;18083;50.560;7.262;2023-03-07T04:58:25;16.30;;;9.90;;
26484;SDS011;18083;50.560;7.262;2023-03-07T05:00:53;13.97;;;9.67;;
26484;SDS011;18083;50.560;7.262;2023-03-07T05:03:22;18.67;;;10.00;;
26484;SDS011;18083;50.560;7.262;2023-03-07T05:05:50;14.73;;;9.40;;
26484;SDS011;18083;50.560;7.262;2023-03-07T05:08:18;16.00;;;10.23;;
26484;SDS011;18083;50.560;7.262;2023-03-07T05:10:45;19.23;;;10.40;;
26484;SDS011;18083;50.560;7.262;2023-03-07T05:13:13;14.37;;;9.30;;
26484;SDS011;18083;50.560;7.262;2023-03-07T05:15:40;13.27;;;8.47;;
26484;SDS011;18083;50.560;7.262;2023-03-07T05:18:08;14.27;;;8.97;;
26484;SDS011;18083;50.560;7.262;2023-03-07T05:20:35;21.93;;;9.73;;
26484;SDS011;18083;50.560;7.262;2023-03-07T05:23:03;16.20;;;10.53;;
26484;SDS011;18083;50.560;7.262;2023-03-07T05:25:30;14.17;;;9.03;;
26484;SDS011;18083;50.560;7.262;2023-03-07T05:27:58;19.93;;;9.27;;
26484;SDS011;18083;50.560;7.262;2023-03-07T05:30:25;10.87;;;8.07;;
26484;SDS011;18083;50.560;7.262;2023-03-07T05:32:52;17.70;;;10.27;;
26484;SDS011;18083;50.560;7.262;2023-03-07T05:35:19;14.93;;;8.40;;
26484;SDS011;18083;50.560;7.262;2023-03-07T05:37:49;16.73;;;9.03;;
26484;SDS011;18083;50.560;7.262;2023-03-07T05:40:16;16.23;;;8.17;;
26484;SDS011;18083;50.560;7.262;2023-03-07T05:42:44;16.10;;;9.57;;
26484;SDS011;18083;50.560;7.262;2023-03-07T05:45:11;15.23;;;9.40;;
26484;SDS011;18083;50.560;7.262;2023-03-07T05:47:39;16.40;;;8.93;;
26484;SDS011;18083;50.560;7.262;2023-03-07T05:50:06;16.97;;;9.10;;
26484;SDS011;18083;50.560;7.262;2023-03-07T05:52:34;16.80;;;9.23;;
26484;SDS011;18083;50.560;7.262;2023-03-07T05:55:01;13.57;;;8.67;;
26484;SDS011;18083;50.560;7.262;2023-03-07T05:57:29;14.27;;;8.30;;
26484;SDS011;18083;50.560;7.262;2023-03-07T05:59:57;14.93;;;8.67;;
26484;SDS011;18083;50.560;7.262;2023-03-07T06:02:24;16.90;;;9.67;;
26484;SDS011;18083;50.560;7.262;2023-03-07T06:04:51;19.83;;;8.93;;
26484;SDS011;18083;50.560;7.262;2023-03-07T06:07:18;18.50;;;10.57;;
26484;SDS011;18083;50.560;7.262;2023-03-07T06:09:46;13.97;;;9.27;;
26484;SDS011;18083;50.560;7.262;2023-03-07T06:12:13;12.27;;;8.67;;
26484;SDS011;18083;50.560;7.262;2023-03-07T06:14:41;16.63;;;8.17;;
26484;SDS011;18083;50.560;7.262;2023-03-07T06:17:08;14.50;;;8.60;;
26484;SDS011;18083;50.560;7.262;2023-03-07T06:19:35;16.10;;;9.03;;
26484;SDS011;18083;50.560;7.262;2023-03-07T06:22:03;13.83;;;8.30;;
26484;SDS011;18083;50.560;7.262;2023-03-07T06:24:30;17.77;;;9.33;;
26484;SDS011;18083;50.560;7.262;2023-03-07T06:26:58;17.27;;;9.13;;
26484;SDS011;18083;50.560;7.262;2023-03-07T06:29:26;13.07;;;8.03;;
26484;SDS011;18083;50.560;7.262;2023-03-07T06:31:53;16.73;;;10.17;;
26484;SDS011;18083;50.560;7.262;2023-03-07T06:34:20;17.27;;;9.50;;
26484;SDS011;18083;50.560;7.262;2023-03-07T06:36:48;16.80;;;8.07;;
26484;SDS011;18083;50.560;7.262;2023-03-07T06:39:15;17.03;;;9.20;;
26484;SDS011;18083;50.560;7.262;2023-03-07T06:41:44;15.97;;;8.90;;
26484;SDS011;18083;50.560;7.262;2023-03-07T06:44:12;16.83;;;10.83;;
26484;SDS011;18083;50.560;7.262;2023-03-07T06:46:39;13.73;;;8.43;;
26484;SDS011;18083;50.560;7.262;2023-03-07T06:49:07;14.77;;;9.40;;
26484;SDS011;18083;50.560;7.262;2023-03-07T06:51:34;15.53;;;9.43;;
26484;SDS011;18083;50.560;7.262;2023-03-07T06:54:02;16.70;;;9.10;;
26484;SDS011;18083;50.560;7.262;2023-03-07T06:56:29;19.47;;;9.93;;
26484;SDS011;18083;50.560;7.262;2023-03-07T06:58:56;19.80;;;10.87;;
26484;SDS011;18083;50.560;7.262;2023-03-07T07:01:23;14.77;;;8.47;;
26484;SDS011;18083;50.560;7.262;2023-03-07T07:03:51;17.37;;;9.67;;
26484;SDS011;18083;50.560;7.262;2023-03-07T07:06:18;20.20;;;10.27;;
26484;SDS011;18083;50.560;7.262;2023-03-07T07:08:46;20.23;;;11.57;;
26484;SDS011;18083;50.560;7.262;2023-03-07T07:11:13;21.63;;;11.40;;
26484;SDS011;18083;50.560;7.262;2023-03-07T07:13:40;16.10;;;11.50;;
26484;SDS011;18083;50.560;7.262;2023-03-07T07:16:07;20.80;;;10.57;;
26484;SDS011;18083;50.560;7.262;2023-03-07T07:18:35;24.30;;;13.37;;
26484;SDS011;18083;50.560;7.262;2023-03-07T07:21:02;17.50;;;9.43;;
26484;SDS011;18083;50.560;7.262;2023-03-07T07:23:30;18.70;;;9.63;;
26484;SDS011;18083;50.560;7.262;2023-03-07T07:25:58;13.63;;;9.60;;
26484;SDS011;18083;50.560;7.262;2023-03-07T07:28:25;12.33;;;8.67;;
26484;SDS011;18083;50.560;7.262;2023-03-07T07:30:52;14.40;;;9.13;;
26484;SDS011;18083;50.560;7.262;2023-03-07T07:33:20;18.60;;;9.37;;
26484;SDS011;18083;50.560;7.262;2023-03-07T07:35:47;21.07;;;9.63;;
26484;SDS011;18083;50.560;7.262;2023-03-07T07:38:14;13.60;;;8.53;;
26484;SDS011;18083;50.560;7.262;2023-03-07T07:40:42;16.83;;;8.47;;
26484;SDS011;18083;50.560;7.262;2023-03-07T07:43:13;15.40;;;8.67;;
26484;SDS011;18083;50.560;7.262;2023-03-07T07:45:41;15.00;;;8.73;;
26484;SDS011;18083;50.560;7.262;2023-03-07T07:48:08;15.60;;;8.47;;
26484;SDS011;18083;50.560;7.262;2023-03-07T07:50:36;13.03;;;7.53;;
26484;SDS011;18083;50.560;7.262;2023-03-07T07:53:03;16.40;;;8.53;;
26484;SDS011;18083;50.560;7.262;2023-03-07T07:55:31;13.13;;;8.10;;
26484;SDS011;18083;50.560;7.262;2023-03-07T07:57:58;14.10;;;7.63;;
26484;SDS011;18083;50.560;7.262;2023-03-07T08:00:25;15.00;;;9.87;;
26484;SDS011;18083;50.560;7.262;2023-03-07T08:02:53;16.37;;;8.20;;
26484;SDS011;18083;50.560;7.262;2023-03-07T08:05:20;15.73;;;9.17;;
26484;SDS011;18083;50.560;7.262;2023-03-07T08:07:48;16.27;;;9.17;;
26484;SDS011;18083;50.560;7.262;2023-03-07T08:10:15;14.73;;;8.67;;
26484;SDS011;18083;50.560;7.262;2023-03-07T08:12:49;12.70;;;8.87;;
26484;SDS011;18083;50.560;7.262;2023-03-07T08:15:17;15.57;;;8.10;;
26484;SDS011;18083;50.560;7.262;2023-03-07T08:17:47;14.67;;;7.77;;
26484;SDS011;18083;50.560;7.262;2023-03-07T08:20:16;11.87;;;7.50;;
26484;SDS011;18083;50.560;7.262;2023-03-07T08:22:45;15.07;;;8.40;;
26484;SDS011;18083;50.560;7.262;2023-03-07T08:25:15;15.60;;;9.00;;
26484;SDS011;18083;50.560;7.262;2023-03-07T08:27:43;14.43;;;8.27;;
26484;SDS011;18083;50.560;7.262;2023-03-07T08:30:11;14.63;;;8.10;;
26484;SDS011;18083;50.560;7.262;2023-03-07T08:32:38;11.67;;;7.93;;
26484;SDS011;18083;50.560;7.262;2023-03-07T08:35:06;12.40;;;9.07;;
26484;SDS011;18083;50.560;7.262;2023-03-07T08:37:34;14.77;;;8.97;;
26484;SDS011;18083;50.560;7.262;2023-03-07T08:40:02;14.43;;;8.37;;
26484;SDS011;18083;50.560;7.262;2023-03-07T08:42:30;12.67;;;7.43;;
26484;SDS011;18083;50.560;7.262;2023-03-07T08:44:57;16.37;;;10.57;;
26484;SDS011;18083;50.560;7.262;2023-03-07T08:47:25;11.30;;;7.00;;
26484;SDS011;18083;50.560;7.262;2023-03-07T08:50:00;11.00;;;6.97;;
26484;SDS011;18083;50.560;7.262;2023-03-07T08:52:31;9.97;;;7.60;;
26484;SDS011;18083;50.560;7.262;2023-03-07T08:55:00;11.43;;;6.70;;
26484;SDS011;18083;50.560;7.262;2023-03-07T08:57:30;12.57;;;7.43;;
26484;SDS011;18083;50.560;7.262;2023-03-07T09:00:03;13.87;;;7.47;;
26484;SDS011;18083;50.560;7.262;2023-03-07T09:02:33;10.47;;;6.20;;
26484;SDS011;18083;50.560;7.262;2023-03-07T09:05:03;14.37;;;6.80;;
26484;SDS011;18083;50.560;7.262;2023-03-07T09:07:31;11.83;;;7.03;;
26484;SDS011;18083;50.560;7.262;2023-03-07T09:10:00;11.73;;;5.70;;
26484;SDS011;18083;50.560;7.262;2023-03-07T09:12:27;12.37;;;7.07;;
26484;SDS011;18083;50.560;7.262;2023-03-07T09:14:55;9.33;;;6.60;;
26484;SDS011;18083;50.560;7.262;2023-03-07T09:17:22;8.73;;;5.37;;
26484;SDS011;18083;50.560;7.262;2023-03-07T09:19:49;12.13;;;5.93;;
26484;SDS011;18083;50.560;7.262;2023-03-07T09:22:17;13.23;;;6.53;;
26484;SDS011;18083;50.560;7.262;2023-03-07T09:24:44;13.10;;;6.67;;
26484;SDS011;18083;50.560;7.262;2023-03-07T09:27:12;10.87;;;6.20;;
26484;SDS011;18083;50.560;7.262;2023-03-07T09:29:39;14.50;;;5.87;;
26484;SDS011;18083;50.560;7.262;2023-03-07T09:32:06;11.83;;;6.27;;
26484;SDS011;18083;50.560;7.262;2023-03-07T09:34:36;9.17;;;5.60;;
26484;SDS011;18083;50.560;7.262;2023-03-07T09:37:14;19.77;;;6.97;;
26484;SDS011;18083;50.560;7.262;2023-03-07T09:39:41;12.37;;;5.53;;
26484;SDS011;18083;50.560;7.262;2023-03-07T09:49:53;8.67;;;5.17;;
26484;SDS011;18083;50.560;7.262;2023-03-07T09:52:21;9.03;;;5.10;;
26484;SDS011;18083;50.560;7.262;2023-03-07T09:54:54;9.53;;;6.57;;
26484;SDS011;18083;50.560;7.262;2023-03-07T09:57:25;10.33;;;6.10;;
26484;SDS011;18083;50.560;7.262;2023-03-07T09:59:54;11.20;;;6.33;;
26484;SDS011;18083;50.560;7.262;2023-03-07T10:02:28;9.10;;;5.83;;
26484;SDS011;18083;50.560;7.262;2023-03-07T10:07:41;6.37;;;4.43;;
26484;SDS011;18083;50.560;7.262;2023-03-07T10:10:15;8.73;;;5.83;;
26484;SDS011;18083;50.560;7.262;2023-03-07T10:13:03;7.40;;;4.90;;
26484;SDS011;18083;50.560;7.262;2023-03-07T10:15:17;8.40;;;5.60;;
26484;SDS011;18083;50.560;7.262;2023-03-07T10:17:51;15.07;;;7.07;;
26484;SDS011;18083;50.560;7.262;2023-03-07T10:20:21;8.70;;;4.90;;
26484;SDS011;18083;50.560;7.262;2023-03-07T10:22:47;9.43;;;6.30;;
26484;SDS011;18083;50.560;7.262;2023-03-07T10:27:47;9.80;;;5.10;;
26484;SDS011;18083;50.560;7.262;2023-03-07T10:30:18;9.33;;;4.80;;
26484;SDS011;18083;50.560;7.262;2023-03-07T10:32:51;7.30;;;4.00;;
26484;SDS011;18083;50.560;7.262;2023-03-07T10:35:28;31.77;;;6.73;;
26484;SDS011;18083;50.560;7.262;2023-03-07T10:37:57;11.60;;;5.50;;
26484;SDS011;18083;50.560;7.262;2023-03-07T10:40:47;7.77;;;4.97;;
26484;SDS011;18083;50.560;7.262;2023-03-07T10:43:32;10.40;;;5.10;;
26484;SDS011;18083;50.560;7.262;2023-03-07T10:46:08;11.90;;;6.30;;
26484;SDS011;18083;50.560;7.262;2023-03-07T10:48:33;9.03;;;5.43;;
26484;SDS011;18083;50.560;7.262;2023-03-07T10:51:04;7.37;;;4.53;;
26484;SDS011;18083;50.560;7.262;2023-03-07T10:53:30;6.37;;;4.13;;
26484;SDS011;18083;50.560;7.262;2023-03-07T10:56:12;7.00;;;4.30;;
26484;SDS011;18083;50.560;7.262;2023-03-07T10:58:36;8.20;;;4.50;;
26484;SDS011;18083;50.560;7.262;2023-03-07T11:03:51;6.63;;;4.47;;
26484;SDS011;18083;50.560;7.262;2023-03-07T11:06:25;6.90;;;4.17;;
26484;SDS011;18083;50.560;7.262;2023-03-07T11:08:52;6.87;;;4.17;;
26484;SDS011;18083;50.560;7.262;2023-03-07T11:11:22;10.53;;;4.73;;
26484;SDS011;18083;50.560;7.262;2023-03-07T11:14:09;10.30;;;5.40;;
26484;SDS011;18083;50.560;7.262;2023-03-07T11:16:40;7.57;;;3.90;;
26484;SDS011;18083;50.560;7.262;2023-03-07T11:19:22;5.07;;;3.87;;
26484;SDS011;18083;50.560;7.262;2023-03-07T11:21:34;23.17;;;5.27;;
26484;SDS011;18083;50.560;7.262;2023-03-07T11:24:03;10.87;;;4.00;;
26484;SDS011;18083;50.560;7.262;2023-03-07T11:26:34;7.73;;;3.93;;
26484;SDS011;18083;50.560;7.262;2023-03-07T11:29:08;7.77;;;4.43;;
26484;SDS011;18083;50.560;7.262;2023-03-07T11:31:54;6.93;;;5.07;;
26484;SDS011;18083;50.560;7.262;2023-03-07T11:37:00;7.47;;;4.03;;
26484;SDS011;18083;50.560;7.262;2023-03-07T11:40:11;6.87;;;3.77;;
26484;SDS011;18083;50.560;7.262;2023-03-07T11:41:58;5.40;;;3.60;;
26484;SDS011;18083;50.560;7.262;2023-03-07T11:44:41;6.20;;;3.50;;
26484;SDS011;18083;50.560;7.262;2023-03-07T11:47:45;6.77;;;3.43;;
26484;SDS011;18083;50.560;7.262;2023-03-07T11:49:44;4.57;;;3.30;;
26484;SDS011;18083;50.560;7.262;2023-03-07T11:57:45;4.53;;;2.70;;
26484;SDS011;18083;50.560;7.262;2023-03-07T12:02:54;5.60;;;3.23;;
26484;SDS011;18083;50.560;7.262;2023-03-07T12:05:20;6.53;;;3.17;;
26484;SDS011;18083;50.560;7.262;2023-03-07T12:16:08;6.17;;;3.97;;
26484;SDS011;18083;50.560;7.262;2023-03-07T12:18:38;5.53;;;3.67;;
26484;SDS011;18083;50.560;7.262;2023-03-07T12:24:01;18.60;;;5.70;;
26484;SDS011;18083;50.560;7.262;2023-03-07T12:39:18;6.17;;;3.80;;
26484;SDS011;18083;50.560;7.262;2023-03-07T12:50:18;11.70;;;5.43;;
26484;SDS011;18083;50.560;7.262;2023-03-07T12:52:00;8.60;;;5.07;;
26484;SDS011;18083;50.560;7.262;2023-03-07T12:54:29;8.83;;;5.07;;
26484;SDS011;18083;50.560;7.262;2023-03-07T12:57:09;8.50;;;4.93;;
26484;SDS011;18083;50.560;7.262;2023-03-07T12:59:36;8.10;;;4.43;;
26484;SDS011;18083;50.560;7.262;2023-03-07T13:02:15;6.63;;;4.17;;
26484;SDS011;18083;50.560;7.262;2023-03-07T13:04:35;9.87;;;5.33;;
26484;SDS011;18083;50.560;7.262;2023-03-07T13:09:38;11.23;;;5.33;;
26484;SDS011;18083;50.560;7.262;2023-03-07T13:12:08;8.53;;;5.13;;
26484;SDS011;18083;50.560;7.262;2023-03-07T13:14:37;9.97;;;4.77;;
26484;SDS011;18083;50.560;7.262;2023-03-07T13:17:07;8.30;;;4.60;;
26484;SDS011;18083;50.560;7.262;2023-03-07T13:22:03;7.87;;;4.97;;
26484;SDS011;18083;50.560;7.262;2023-03-07T13:24:31;7.93;;;4.90;;
26484;SDS011;18083;50.560;7.262;2023-03-07T13:27:03;7.77;;;5.20;;
26484;SDS011;18083;50.560;7.262;2023-03-07T13:35:01;8.00;;;5.00;;
26484;SDS011;18083;50.560;7.262;2023-03-07T13:37:47;7.73;;;5.27;;
26484;SDS011;18083;50.560;7.262;2023-03-07T13:40:28;7.37;;;4.00;;
26484;SDS011;18083;50.560;7.262;2023-03-07T13:42:56;9.20;;;4.90;;
26484;SDS011;18083;50.560;7.262;2023-03-07T13:48:11;6.90;;;4.60;;
26484;SDS011;18083;50.560;7.262;2023-03-07T13:53:13;6.93;;;4.23;;
26484;SDS011;18083;50.560;7.262;2023-03-07T13:55:43;5.93;;;4.00;;
26484;SDS011;18083;50.560;7.262;2023-03-07T13:58:16;7.33;;;5.53;;
26484;SDS011;18083;50.560;7.262;2023-03-07T14:00:59;6.53;;;4.13;;
26484;SDS011;18083;50.560;7.262;2023-03-07T14:03:35;7.57;;;4.63;;
26484;SDS011;18083;50.560;7.262;2023-03-07T14:05:58;7.43;;;3.77;;
26484;SDS011;18083;50.560;7.262;2023-03-07T14:08:27;4.27;;;3.50;;
26484;SDS011;18083;50.560;7.262;2023-03-07T14:10:54;8.00;;;4.80;;
26484;SDS011;18083;50.560;7.262;2023-03-07T14:13:32;7.53;;;4.40;;
26484;SDS011;18083;50.560;7.262;2023-03-07T14:23:59;8.27;;;4.23;;
26484;SDS011;18083;50.560;7.262;2023-03-07T14:26:39;5.03;;;3.90;;
26484;SDS011;18083;50.560;7.262;2023-03-07T14:29:13;9.70;;;4.00;;
26484;SDS011;18083;50.560;7.262;2023-03-07T14:31:40;12.93;;;4.80;;
26484;SDS011;18083;50.560;7.262;2023-03-07T14:36:55;5.90;;;3.67;;
26484;SDS011;18083;50.560;7.262;2023-03-07T14:39:19;7.30;;;4.43;;
26484;SDS011;18083;50.560;7.262;2023-03-07T14:41:58;9.80;;;5.60;;
26484;SDS011;18083;50.560;7.262;2023-03-07T14:49:29;8.83;;;3.80;;
26484;SDS011;18083;50.560;7.262;2023-03-07T14:51:54;7.27;;;4.13;;
26484;SDS011;18083;50.560;7.262;2023-03-07T14:54:22;8.30;;;4.80;;
26484;SDS011;18083;50.560;7.262;2023-03-07T14:56:51;6.20;;;4.67;;
26484;SDS011;18083;50.560;7.262;2023-03-07T14:59:19;5.87;;;4.10;;
26484;SDS011;18083;50.560;7.262;2023-03-07T15:01:47;9.93;;;5.30;;
26484;SDS011;18083;50.560;7.262;2023-03-07T15:04:22;7.33;;;4.67;;
26484;SDS011;18083;50.560;7.262;2023-03-07T15:06:59;8.27;;;5.07;;
26484;SDS011;18083;50.560;7.262;2023-03-07T15:09:27;8.13;;;4.83;;
26484;SDS011;18083;50.560;7.262;2023-03-07T15:14:42;8.87;;;6.07;;
26484;SDS011;18083;50.560;7.262;2023-03-07T15:17:12;10.37;;;5.67;;
26484;SDS011;18083;50.560;7.262;2023-03-07T15:20:39;9.97;;;5.67;;
26484;SDS011;18083;50.560;7.262;2023-03-07T15:22:24;10.00;;;5.07;;
26484;SDS011;18083;50.560;7.262;2023-03-07T15:24:49;8.07;;;5.30;;
26484;SDS011;18083;50.560;7.262;2023-03-07T15:29:52;10.60;;;5.83;;
26484;SDS011;18083;50.560;7.262;2023-03-07T15:32:35;9.43;;;5.30;;
26484;SDS011;18083;50.560;7.262;2023-03-07T15:37:49;7.40;;;4.93;;
26484;SDS011;18083;50.560;7.262;2023-03-07T15:43:13;12.47;;;5.37;;
26484;SDS011;18083;50.560;7.262;2023-03-07T15:45:36;8.53;;;5.27;;
26484;SDS011;18083;50.560;7.262;2023-03-07T15:50:52;10.50;;;5.43;;
26484;SDS011;18083;50.560;7.262;2023-03-07T15:53:24;11.00;;;6.37;;
26484;SDS011;18083;50.560;7.262;2023-03-07T15:56:01;8.37;;;6.27;;
26484;SDS011;18083;50.560;7.262;2023-03-07T15:58:24;6.83;;;5.63;;
26484;SDS011;18083;50.560;7.262;2023-03-07T16:03:47;6.87;;;5.90;;
26484;SDS011;18083;50.560;7.262;2023-03-07T16:06:32;8.07;;;5.50;;
26484;SDS011;18083;50.560;7.262;2023-03-07T16:08:59;6.43;;;4.93;;
26484;SDS011;18083;50.560;7.262;2023-03-07T16:11:27;7.47;;;5.50;;
26484;SDS011;18083;50.560;7.262;2023-03-07T16:13:54;8.47;;;5.13;;
26484;SDS011;18083;50.560;7.262;2023-03-07T16:16:22;6.47;;;4.60;;
26484;SDS011;18083;50.560;7.262;2023-03-07T16:18:50;6.07;;;4.30;;
26484;SDS011;18083;50.560;7.262;2023-03-07T16:21:18;5.47;;;4.30;;
26484;SDS011;18083;50.560;7.262;2023-03-07T16:23:46;7.13;;;4.73;;
26484;SDS011;18083;50.560;7.262;2023-03-07T16:26:15;7.90;;;6.10;;
26484;SDS011;18083;50.560;7.262;2023-03-07T16:28:42;6.67;;;5.17;;
26484;SDS011;18083;50.560;7.262;2023-03-07T16:31:13;11.03;;;6.10;;
26484;SDS011;18083;50.560;7.262;2023-03-07T16:36:44;7.40;;;5.70;;
26484;SDS011;18083;50.560;7.262;2023-03-07T16:39:13;7.03;;;5.23;;
26484;SDS011;18083;50.560;7.262;2023-03-07T16:41:43;7.70;;;4.50;;
26484;SDS011;18083;50.560;7.262;2023-03-07T16:44:19;6.50;;;4.93;;
26484;SDS011;18083;50.560;7.262;2023-03-07T16:46:42;5.53;;;4.33;;